Time;durP1;ratioP1;P1;durP2;ratioP2;P2;SDS_P1;SDS_P2;PMS_P1;PMS_P2;Temp;Humidity;BMP_temperature;BMP_pressure;BME280_temperature;BME280_humidity;BME280_pressure;Samples;Min_cycle;Max_cycle;Signal;HPM_P1;HPM_P2
2021/08/19 00:00:46;;;;;;;;;;;16.90;99.90;;;;;;1815701;76;20188;-73
2021/08/19 00:03:13;;;;;;;;;;;16.90;99.90;;;;;;1806429;76;20187;-73
2021/08/19 00:05:40;;;;;;;;;;;16.90;99.90;;;;;;1839795;76;20181;-73
2021/08/19 00:08:07;;;;;;;;;;;16.90;99.90;;;;;;1841328;76;20233;-72
2021/08/19 00:10:35;;;;;;;;;;;16.90;99.90;;;;;;1839296;76;20128;-72
2021/08/19 00:13:02;;;;;;;;;;;16.80;99.90;;;;;;1833225;76;20348;-71
2021/08/19 00:15:29;;;;;;;;;;;16.80;99.90;;;;;;1857385;76;20135;-72
2021/08/19 00:17:56;;;;;;;;;;;16.80;99.90;;;;;;1839855;76;20186;-72
2021/08/19 00:20:22;;;;;;;;;;;16.80;99.90;;;;;;1841415;76;20199;-72
2021/08/19 00:22:49;;;;;;;;;;;16.80;99.90;;;;;;1841217;76;20170;-74
2021/08/19 00:25:16;;;;;;;;;;;16.80;99.90;;;;;;1841421;76;20285;-75
2021/08/19 00:27:43;;;;;;;;;;;16.80;99.90;;;;;;1841919;78;20250;-74
2021/08/19 00:30:10;;;;;;;;;;;16.80;99.90;;;;;;1839855;76;20122;-74
2021/08/19 00:32:37;;;;;;;;;;;16.80;99.90;;;;;;1817319;76;20184;-74
2021/08/19 00:35:04;;;;;;;;;;;16.70;99.90;;;;;;1830564;76;20123;-74
2021/08/19 00:37:33;;;;;;;;;;;16.80;99.90;;;;;;1841595;76;20164;-74
2021/08/19 00:39:59;;;;;;;;;;;16.80;99.90;;;;;;1824480;76;20178;-75
2021/08/19 00:42:26;;;;;;;;;;;16.80;99.90;;;;;;1841397;76;20134;-75
2021/08/19 00:44:53;;;;;;;;;;;16.70;99.90;;;;;;1841550;76;20213;-73
2021/08/19 00:47:19;;;;;;;;;;;16.80;99.90;;;;;;1841385;76;20185;-71
2021/08/19 00:49:46;;;;;;;;;;;16.80;99.90;;;;;;1841621;76;20194;-71
2021/08/19 00:52:15;;;;;;;;;;;16.80;99.90;;;;;;1841047;76;20534;-71
2021/08/19 00:54:42;;;;;;;;;;;16.80;99.90;;;;;;1841898;76;20204;-71
2021/08/19 00:57:09;;;;;;;;;;;16.80;99.90;;;;;;1841530;76;20162;-72
2021/08/19 00:59:39;;;;;;;;;;;16.70;99.90;;;;;;1841955;76;20510;-74
2021/08/19 01:02:08;;;;;;;;;;;16.70;99.90;;;;;;1841718;76;20209;-73
2021/08/19 01:04:36;;;;;;;;;;;16.70;99.90;;;;;;1839784;76;20300;-73
2021/08/19 01:07:03;;;;;;;;;;;16.70;99.90;;;;;;1841382;76;20518;-72
2021/08/19 01:09:30;;;;;;;;;;;16.70;99.90;;;;;;1841627;76;20224;-73
2021/08/19 01:11:57;;;;;;;;;;;16.70;99.90;;;;;;1838975;76;20119;-74
2021/08/19 01:14:24;;;;;;;;;;;16.70;99.90;;;;;;1831670;76;20250;-74
2021/08/19 01:16:51;;;;;;;;;;;16.70;99.90;;;;;;1832150;76;20152;-74
2021/08/19 01:19:21;;;;;;;;;;;16.70;99.90;;;;;;1826546;76;20822;-74
2021/08/19 01:21:52;;;;;;;;;;;16.70;99.90;;;;;;1850441;76;20172;-75
2021/08/19 01:24:19;;;;;;;;;;;16.70;99.90;;;;;;1847115;76;20155;-72
2021/08/19 01:26:47;;;;;;;;;;;16.70;99.90;;;;;;1841724;76;20208;-73
2021/08/19 01:29:14;;;;;;;;;;;16.70;99.90;;;;;;1841729;76;20462;-72
2021/08/19 01:31:41;;;;;;;;;;;16.70;99.90;;;;;;1841280;76;20421;-72
2021/08/19 01:34:08;;;;;;;;;;;16.70;99.90;;;;;;1835486;76;20107;-72
2021/08/19 01:36:35;;;;;;;;;;;16.70;99.90;;;;;;1841405;76;20420;-72
2021/08/19 01:39:01;;;;;;;;;;;16.70;99.90;;;;;;1841790;76;20174;-72
2021/08/19 01:41:28;;;;;;;;;;;16.60;99.90;;;;;;1840110;76;20795;-73
2021/08/19 01:43:55;;;;;;;;;;;16.70;99.90;;;;;;1838736;76;20178;-73
2021/08/19 01:46:22;;;;;;;;;;;16.70;99.90;;;;;;1841783;76;20398;-73
2021/08/19 01:48:50;;;;;;;;;;;16.60;99.90;;;;;;1841861;76;20150;-73
2021/08/19 01:51:17;;;;;;;;;;;16.70;99.90;;;;;;1830329;76;20438;-73
2021/08/19 01:53:44;;;;;;;;;;;16.70;99.90;;;;;;1833179;76;20651;-73
2021/08/19 01:56:12;;;;;;;;;;;16.70;99.90;;;;;;1842050;78;20461;-73
2021/08/19 01:58:39;;;;;;;;;;;16.70;99.90;;;;;;1841405;76;20770;-73
2021/08/19 02:01:06;;;;;;;;;;;16.70;99.90;;;;;;1841812;77;20167;-73
2021/08/19 02:03:32;;;;;;;;;;;16.70;99.90;;;;;;1841186;76;20130;-73
2021/08/19 02:05:59;;;;;;;;;;;16.70;99.90;;;;;;1841188;76;20208;-72
2021/08/19 02:08:26;;;;;;;;;;;16.70;99.90;;;;;;1832399;76;20182;-72
2021/08/19 02:10:53;;;;;;;;;;;16.70;99.90;;;;;;1841319;76;20112;-72
2021/08/19 02:13:20;;;;;;;;;;;16.70;99.90;;;;;;1838300;76;20167;-72
2021/08/19 02:15:55;;;;;;;;;;;16.70;99.90;;;;;;1841468;76;20534;-72
2021/08/19 02:18:22;;;;;;;;;;;16.70;99.90;;;;;;1826507;76;20205;-73
2021/08/19 02:20:49;;;;;;;;;;;16.70;99.90;;;;;;1841515;76;20128;-74
2021/08/19 02:23:16;;;;;;;;;;;16.70;99.90;;;;;;1836994;76;20130;-74
2021/08/19 02:25:43;;;;;;;;;;;16.70;99.90;;;;;;1841462;76;20168;-75
2021/08/19 02:28:29;;;;;;;;;;;16.70;99.90;;;;;;1841962;76;20124;-75
2021/08/19 02:30:56;;;;;;;;;;;16.70;99.90;;;;;;1873171;75;20382;-72
2021/08/19 02:33:23;;;;;;;;;;;16.70;99.90;;;;;;1868583;75;20462;-72
2021/08/19 02:35:49;;;;;;;;;;;16.70;99.90;;;;;;1869018;75;20240;-72
2021/08/19 02:38:16;;;;;;;;;;;16.70;99.90;;;;;;1874559;75;20795;-71
2021/08/19 02:40:43;;;;;;;;;;;16.70;99.90;;;;;;1866025;75;20206;-72
2021/08/19 02:43:10;;;;;;;;;;;16.70;99.90;;;;;;1869834;75;20397;-72
2021/08/19 02:45:37;;;;;;;;;;;16.70;99.90;;;;;;1869750;75;20190;-72
2021/08/19 02:48:04;;;;;;;;;;;16.60;99.90;;;;;;1870210;75;20188;-72
2021/08/19 02:50:31;;;;;;;;;;;16.70;99.90;;;;;;1855837;75;20197;-72
2021/08/19 02:52:58;;;;;;;;;;;16.70;99.90;;;;;;1858239;75;20209;-72
2021/08/19 02:55:25;;;;;;;;;;;16.70;99.90;;;;;;1864102;75;20159;-72
2021/08/19 02:57:52;;;;;;;;;;;16.70;99.90;;;;;;1870568;75;20179;-71
2021/08/19 03:00:19;;;;;;;;;;;16.60;99.90;;;;;;1868672;75;20175;-70
2021/08/19 03:02:46;;;;;;;;;;;16.60;99.90;;;;;;1870226;75;20210;-71
2021/08/19 03:05:13;;;;;;;;;;;16.60;99.90;;;;;;1869327;75;20139;-71
2021/08/19 03:07:39;;;;;;;;;;;16.60;99.90;;;;;;1868845;75;20210;-72
2021/08/19 03:10:07;;;;;;;;;;;16.60;99.90;;;;;;1869378;75;20284;-72
2021/08/19 03:12:33;;;;;;;;;;;16.60;99.90;;;;;;1868562;75;20244;-72
2021/08/19 03:15:00;;;;;;;;;;;16.60;99.90;;;;;;1868668;75;20237;-72
2021/08/19 03:17:29;;;;;;;;;;;16.60;99.90;;;;;;1869302;75;20147;-72
2021/08/19 03:19:56;;;;;;;;;;;16.60;99.90;;;;;;1869779;75;20232;-72
2021/08/19 03:22:23;;;;;;;;;;;16.60;99.90;;;;;;1869893;75;20217;-72
2021/08/19 03:24:49;;;;;;;;;;;16.60;99.90;;;;;;1871623;75;20140;-72
2021/08/19 03:27:16;;;;;;;;;;;16.60;99.90;;;;;;1870637;75;20175;-72
2021/08/19 03:29:43;;;;;;;;;;;16.60;99.90;;;;;;1870025;75;20206;-71
2021/08/19 03:32:10;;;;;;;;;;;16.60;99.90;;;;;;1867287;75;20159;-71
2021/08/19 03:34:37;;;;;;;;;;;16.60;99.90;;;;;;1863259;75;20198;-72
2021/08/19 03:37:06;;;;;;;;;;;16.60;99.90;;;;;;1868845;75;20202;-74
2021/08/19 03:39:32;;;;;;;;;;;16.60;99.90;;;;;;1869899;75;20183;-73
2021/08/19 03:41:59;;;;;;;;;;;16.50;99.90;;;;;;1869662;75;20191;-73
2021/08/19 03:44:25;;;;;;;;;;;16.50;99.90;;;;;;1868623;75;20183;-75
2021/08/19 03:46:53;;;;;;;;;;;16.50;99.90;;;;;;1869738;75;20467;-75
2021/08/19 03:49:20;;;;;;;;;;;16.50;99.90;;;;;;1867130;75;20255;-76
2021/08/19 03:51:46;;;;;;;;;;;16.50;99.90;;;;;;1869717;75;20174;-71
2021/08/19 03:54:14;;;;;;;;;;;16.50;99.90;;;;;;1866640;75;20199;-73
2021/08/19 03:56:40;;;;;;;;;;;16.50;99.90;;;;;;1869620;77;20273;-72
2021/08/19 03:59:08;;;;;;;;;;;16.50;99.90;;;;;;1869547;75;20199;-70
2021/08/19 04:01:34;;;;;;;;;;;16.50;99.90;;;;;;1869752;75;20178;-75
2021/08/19 04:04:01;;;;;;;;;;;16.50;99.90;;;;;;1868516;75;20217;-69
2021/08/19 04:06:28;;;;;;;;;;;16.50;99.90;;;;;;1866890;75;20496;-70
2021/08/19 04:08:55;;;;;;;;;;;16.50;99.90;;;;;;1868877;75;20233;-70
2021/08/19 04:11:22;;;;;;;;;;;16.50;99.90;;;;;;1869563;76;20160;-70
2021/08/19 04:13:50;;;;;;;;;;;16.50;99.90;;;;;;1868514;75;20179;-69
2021/08/19 04:16:17;;;;;;;;;;;16.50;99.90;;;;;;1869481;75;20479;-74
2021/08/19 04:18:44;;;;;;;;;;;16.50;99.90;;;;;;1869539;75;20526;-70
2021/08/19 04:21:11;;;;;;;;;;;16.50;99.90;;;;;;1869371;76;20164;-70
2021/08/19 04:23:41;;;;;;;;;;;16.50;99.90;;;;;;1870172;76;20151;-70
2021/08/19 04:26:06;;;;;;;;;;;16.50;99.90;;;;;;1867668;75;20210;-71
2021/08/19 04:28:33;;;;;;;;;;;16.50;99.90;;;;;;1870577;76;20213;-71
2021/08/19 04:30:59;;;;;;;;;;;16.50;99.90;;;;;;1869618;76;20128;-70
2021/08/19 04:33:28;;;;;;;;;;;16.50;99.90;;;;;;1869492;77;20183;-70
2021/08/19 04:35:55;;;;;;;;;;;16.50;99.90;;;;;;1866961;75;20191;-70
2021/08/19 04:38:22;;;;;;;;;;;16.40;99.90;;;;;;1870689;77;20225;-70
2021/08/19 04:40:49;;;;;;;;;;;16.50;99.90;;;;;;1869078;75;20658;-74
2021/08/19 04:43:15;;;;;;;;;;;16.40;99.90;;;;;;1869201;76;20186;-70
2021/08/19 04:45:42;;;;;;;;;;;16.50;99.90;;;;;;1869327;75;20152;-71
2021/08/19 04:48:09;;;;;;;;;;;16.40;99.90;;;;;;1868963;75;20195;-71
2021/08/19 04:50:36;;;;;;;;;;;16.40;99.90;;;;;;1873931;75;20185;-72
2021/08/19 04:53:04;;;;;;;;;;;16.40;99.90;;;;;;1865643;75;21153;-71
2021/08/19 04:55:31;;;;;;;;;;;16.40;99.90;;;;;;1868560;77;20418;-70
2021/08/19 04:57:57;;;;;;;;;;;16.40;99.90;;;;;;1870463;77;20199;-70
2021/08/19 05:00:24;;;;;;;;;;;16.40;99.90;;;;;;1870421;75;20151;-70
2021/08/19 05:02:51;;;;;;;;;;;16.40;99.90;;;;;;1870353;77;20545;-70
2021/08/19 05:05:18;;;;;;;;;;;16.40;99.90;;;;;;1870710;76;20191;-70
2021/08/19 05:07:44;;;;;;;;;;;16.40;99.90;;;;;;1870814;77;20409;-70
2021/08/19 05:10:11;;;;;;;;;;;16.40;99.90;;;;;;1870479;75;20225;-70
2021/08/19 05:12:38;;;;;;;;;;;16.40;99.90;;;;;;1870599;77;20236;-70
2021/08/19 05:15:05;;;;;;;;;;;16.40;99.90;;;;;;1870485;76;20222;-70
2021/08/19 05:17:32;;;;;;;;;;;16.40;99.90;;;;;;1870616;77;20191;-70
2021/08/19 05:19:59;;;;;;;;;;;16.40;99.90;;;;;;1870437;75;20155;-70
2021/08/19 05:22:26;;;;;;;;;;;16.40;99.90;;;;;;1870471;76;20198;-70
2021/08/19 05:24:53;;;;;;;;;;;16.50;99.90;;;;;;1870589;77;20195;-70
2021/08/19 05:27:19;;;;;;;;;;;16.40;99.90;;;;;;1870548;77;20151;-70
2021/08/19 05:29:46;;;;;;;;;;;16.50;99.90;;;;;;1870661;75;20207;-70
2021/08/19 05:32:13;;;;;;;;;;;16.40;99.90;;;;;;1870354;76;20195;-70
2021/08/19 05:34:40;;;;;;;;;;;16.40;99.90;;;;;;1870921;76;20175;-70
2021/08/19 05:37:06;;;;;;;;;;;16.40;99.90;;;;;;1870758;77;20199;-70
2021/08/19 05:39:33;;;;;;;;;;;16.40;99.90;;;;;;1870636;75;20263;-71
2021/08/19 05:42:00;;;;;;;;;;;16.40;99.90;;;;;;1870380;76;20206;-71
2021/08/19 05:44:27;;;;;;;;;;;16.50;99.90;;;;;;1870950;77;20484;-71
2021/08/19 05:46:54;;;;;;;;;;;16.50;99.90;;;;;;1870642;77;20194;-71
2021/08/19 05:49:20;;;;;;;;;;;16.50;99.90;;;;;;1870928;75;20496;-71
2021/08/19 05:51:47;;;;;;;;;;;16.50;99.90;;;;;;1870440;77;20191;-70
2021/08/19 05:54:14;;;;;;;;;;;16.50;99.90;;;;;;1870905;77;20443;-71
2021/08/19 05:56:41;;;;;;;;;;;16.50;99.90;;;;;;1870764;76;20191;-71
2021/08/19 05:59:08;;;;;;;;;;;16.60;99.90;;;;;;1870772;75;20203;-71
2021/08/19 06:01:36;;;;;;;;;;;16.60;99.90;;;;;;1870699;77;20186;-71
2021/08/19 06:04:03;;;;;;;;;;;16.50;99.90;;;;;;1870565;76;20230;-71
2021/08/19 06:06:29;;;;;;;;;;;16.60;99.90;;;;;;1870810;76;20202;-71
2021/08/19 06:08:56;;;;;;;;;;;16.60;99.90;;;;;;1870682;75;20160;-71
2021/08/19 06:11:23;;;;;;;;;;;16.60;99.90;;;;;;1870491;77;20194;-71
2021/08/19 06:13:50;;;;;;;;;;;16.60;99.90;;;;;;1870667;77;20190;-71
2021/08/19 06:16:17;;;;;;;;;;;16.60;99.90;;;;;;1870879;76;20155;-71
2021/08/19 06:18:44;;;;;;;;;;;16.60;99.90;;;;;;1870903;75;20229;-71
2021/08/19 06:21:11;;;;;;;;;;;16.60;99.90;;;;;;1870841;77;20140;-70
2021/08/19 06:23:37;;;;;;;;;;;16.70;99.90;;;;;;1871021;77;20519;-70
2021/08/19 06:26:04;;;;;;;;;;;16.70;99.90;;;;;;1870880;77;20214;-70
2021/08/19 06:28:31;;;;;;;;;;;16.70;99.90;;;;;;1871035;75;20143;-70
2021/08/19 06:30:58;;;;;;;;;;;16.70;99.90;;;;;;1870691;77;20195;-70
2021/08/19 06:33:25;;;;;;;;;;;16.70;99.90;;;;;;1871134;77;20136;-70
2021/08/19 06:35:52;;;;;;;;;;;16.70;99.90;;;;;;1870931;76;20241;-70
2021/08/19 06:38:18;;;;;;;;;;;16.70;99.90;;;;;;1870887;75;20229;-70
2021/08/19 06:40:45;;;;;;;;;;;16.70;99.90;;;;;;1870581;76;20225;-70
2021/08/19 06:43:12;;;;;;;;;;;16.70;99.90;;;;;;1870739;77;20237;-70
2021/08/19 06:45:39;;;;;;;;;;;16.70;99.90;;;;;;1870784;77;20487;-70
2021/08/19 06:48:06;;;;;;;;;;;16.70;99.90;;;;;;1870703;76;20195;-70
2021/08/19 06:50:32;;;;;;;;;;;16.80;99.90;;;;;;1870638;75;20234;-71
2021/08/19 06:52:59;;;;;;;;;;;16.80;99.90;;;;;;1870912;77;20203;-70
2021/08/19 06:55:28;;;;;;;;;;;16.80;99.90;;;;;;1871054;76;20167;-70
2021/08/19 06:57:55;;;;;;;;;;;16.70;99.90;;;;;;1870968;77;20210;-70
2021/08/19 07:00:22;;;;;;;;;;;16.80;99.90;;;;;;1870736;75;20168;-70
2021/08/19 07:02:48;;;;;;;;;;;16.80;99.90;;;;;;1870936;77;20202;-70
2021/08/19 07:05:15;;;;;;;;;;;16.90;99.90;;;;;;1871015;76;20187;-70
2021/08/19 07:07:42;;;;;;;;;;;16.80;99.90;;;;;;1871044;77;20163;-70
2021/08/19 07:10:09;;;;;;;;;;;16.80;99.90;;;;;;1870979;75;20207;-70
2021/08/19 07:12:36;;;;;;;;;;;16.90;99.90;;;;;;1870807;77;20178;-70
2021/08/19 07:15:04;;;;;;;;;;;16.80;99.90;;;;;;1871002;77;20206;-70
2021/08/19 07:17:30;;;;;;;;;;;16.90;99.90;;;;;;1870977;76;20143;-70
2021/08/19 07:19:57;;;;;;;;;;;16.90;99.90;;;;;;1870858;75;20506;-70
2021/08/19 07:22:25;;;;;;;;;;;17.00;99.90;;;;;;1870724;77;20191;-70
2021/08/19 07:24:52;;;;;;;;;;;16.90;99.90;;;;;;1870934;77;20191;-70
2021/08/19 07:27:19;;;;;;;;;;;17.00;99.90;;;;;;1870948;77;20242;-70
2021/08/19 07:29:46;;;;;;;;;;;16.90;99.90;;;;;;1870933;75;20531;-70
2021/08/19 07:32:14;;;;;;;;;;;17.00;99.90;;;;;;1870766;76;20190;-70
2021/08/19 07:34:41;;;;;;;;;;;17.00;99.90;;;;;;1870991;76;20167;-70
2021/08/19 07:37:08;;;;;;;;;;;17.00;99.90;;;;;;1870934;77;20187;-70
2021/08/19 07:39:35;;;;;;;;;;;17.00;99.90;;;;;;1870993;75;20156;-70
2021/08/19 07:42:02;;;;;;;;;;;17.00;99.90;;;;;;1870695;76;20199;-70
2021/08/19 07:44:28;;;;;;;;;;;17.00;99.90;;;;;;1871145;77;20229;-70
2021/08/19 07:46:55;;;;;;;;;;;17.00;99.90;;;;;;1870925;76;20190;-70
2021/08/19 07:49:22;;;;;;;;;;;17.00;99.90;;;;;;1871019;75;20357;-70
2021/08/19 07:51:49;;;;;;;;;;;17.10;99.90;;;;;;1870732;77;20210;-70
2021/08/19 07:54:17;;;;;;;;;;;17.00;99.90;;;;;;1870972;76;20140;-70
2021/08/19 07:56:44;;;;;;;;;;;17.10;99.90;;;;;;1870942;77;20186;-70
2021/08/19 07:59:11;;;;;;;;;;;17.10;99.90;;;;;;1870889;75;20136;-70
2021/08/19 08:01:38;;;;;;;;;;;17.10;99.90;;;;;;1870777;77;20413;-70
2021/08/19 08:04:08;;;;;;;;;;;17.10;99.90;;;;;;1870925;77;20194;-73
2021/08/19 08:06:34;;;;;;;;;;;17.20;99.90;;;;;;1870737;76;20512;-70
2021/08/19 08:09:00;;;;;;;;;;;17.20;99.90;;;;;;1870865;75;20222;-70
2021/08/19 08:11:27;;;;;;;;;;;17.20;99.90;;;;;;1870762;76;20191;-70
2021/08/19 08:13:54;;;;;;;;;;;17.20;99.90;;;;;;1870883;77;20190;-70
2021/08/19 08:16:21;;;;;;;;;;;17.20;99.90;;;;;;1870909;77;20195;-70
2021/08/19 08:18:47;;;;;;;;;;;17.20;99.90;;;;;;1870902;75;20225;-70
2021/08/19 08:21:14;;;;;;;;;;;17.30;99.90;;;;;;1870722;77;20182;-70
2021/08/19 08:23:42;;;;;;;;;;;17.30;99.90;;;;;;1871014;76;20461;-70
2021/08/19 08:26:11;;;;;;;;;;;17.30;99.90;;;;;;1870945;77;20229;-70
2021/08/19 08:28:38;;;;;;;;;;;17.40;99.90;;;;;;1870501;75;20194;-71
2021/08/19 08:31:05;;;;;;;;;;;17.40;99.90;;;;;;1870696;77;20429;-70
2021/08/19 08:33:32;;;;;;;;;;;17.40;99.90;;;;;;1871091;77;20198;-70
2021/08/19 08:36:00;;;;;;;;;;;17.40;99.90;;;;;;1871068;77;20410;-70
2021/08/19 08:38:27;;;;;;;;;;;17.40;99.90;;;;;;1870912;75;20464;-70
2021/08/19 08:40:54;;;;;;;;;;;17.50;99.90;;;;;;1870750;77;20195;-70
2021/08/19 08:43:21;;;;;;;;;;;17.50;99.90;;;;;;1870900;77;20203;-70
2021/08/19 08:45:49;;;;;;;;;;;17.50;99.90;;;;;;1870908;77;20237;-70
2021/08/19 08:48:17;;;;;;;;;;;17.50;99.90;;;;;;1870874;75;20198;-70
2021/08/19 08:50:48;;;;;;;;;;;17.50;99.90;;;;;;1870754;77;20198;-70
2021/08/19 08:53:16;;;;;;;;;;;17.60;99.90;;;;;;1871040;77;20202;-70
2021/08/19 08:55:43;;;;;;;;;;;17.60;99.90;;;;;;1870828;77;20191;-70
2021/08/19 08:58:10;;;;;;;;;;;17.60;99.90;;;;;;1870955;75;20170;-70
2021/08/19 09:00:39;;;;;;;;;;;17.60;99.90;;;;;;1870687;77;20496;-70
2021/08/19 09:03:07;;;;;;;;;;;17.60;99.90;;;;;;1870823;75;20237;-70
2021/08/19 09:05:35;;;;;;;;;;;17.60;99.90;;;;;;1870953;77;20191;-70
2021/08/19 09:08:02;;;;;;;;;;;17.50;99.90;;;;;;1870578;76;20284;-70
2021/08/19 09:10:30;;;;;;;;;;;17.50;99.90;;;;;;1870760;75;20198;-70
2021/08/19 09:12:58;;;;;;;;;;;17.50;99.90;;;;;;1871049;76;20194;-70
2021/08/19 09:15:26;;;;;;;;;;;17.50;99.90;;;;;;1870216;76;20241;-70
2021/08/19 09:17:54;;;;;;;;;;;17.50;99.90;;;;;;1870982;76;20248;-70
2021/08/19 09:20:21;;;;;;;;;;;17.50;99.90;;;;;;1870836;75;20144;-70
2021/08/19 09:22:56;;;;;;;;;;;17.50;99.90;;;;;;1871021;76;20144;-70
2021/08/19 09:25:27;;;;;;;;;;;17.50;99.90;;;;;;1871080;76;20135;-70
2021/08/19 09:28:10;;;;;;;;;;;17.40;99.90;;;;;;1871030;76;20195;-70
2021/08/19 09:30:38;;;;;;;;;;;17.30;99.90;;;;;;1870861;77;20182;-70
2021/08/19 09:33:05;;;;;;;;;;;17.30;99.90;;;;;;1871125;77;20147;-70
2021/08/19 09:35:32;;;;;;;;;;;17.20;99.90;;;;;;1871048;77;20187;-70
2021/08/19 09:38:00;;;;;;;;;;;17.10;99.90;;;;;;1871003;76;20143;-70
2021/08/19 09:40:28;;;;;;;;;;;17.20;99.90;;;;;;1869793;75;20214;-70
2021/08/19 09:42:54;;;;;;;;;;;17.10;99.90;;;;;;1870862;77;20492;-70
2021/08/19 09:45:22;;;;;;;;;;;17.10;99.90;;;;;;1870839;77;20183;-70
2021/08/19 09:47:56;;;;;;;;;;;17.10;99.90;;;;;;1870831;77;20155;-70
2021/08/19 09:50:19;;;;;;;;;;;17.10;99.90;;;;;;1870386;75;20260;-70
2021/08/19 09:52:47;;;;;;;;;;;17.10;99.90;;;;;;1871140;77;20191;-70
2021/08/19 09:55:21;;;;;;;;;;;17.10;99.90;;;;;;1870981;77;20183;-70
2021/08/19 09:57:48;;;;;;;;;;;17.10;99.90;;;;;;1870912;77;20202;-70
2021/08/19 10:00:32;;;;;;;;;;;17.10;99.90;;;;;;1871074;75;20179;-70
2021/08/19 10:02:59;;;;;;;;;;;17.10;99.90;;;;;;1871125;76;20518;-71
2021/08/19 10:05:26;;;;;;;;;;;17.10;99.90;;;;;;1871021;77;20269;-71
2021/08/19 10:07:53;;;;;;;;;;;17.20;99.90;;;;;;1871025;76;20194;-71
2021/08/19 10:10:19;;;;;;;;;;;17.20;99.90;;;;;;1870876;75;20380;-71
2021/08/19 10:12:47;;;;;;;;;;;17.30;99.90;;;;;;1870982;77;20191;-71
2021/08/19 10:15:14;;;;;;;;;;;17.30;99.90;;;;;;1871009;77;20155;-71
2021/08/19 10:17:51;;;;;;;;;;;17.40;99.90;;;;;;1870955;77;20191;-71
2021/08/19 10:20:36;;;;;;;;;;;17.40;99.90;;;;;;1870914;75;20442;-70
2021/08/19 10:23:03;;;;;;;;;;;17.40;99.90;;;;;;1870341;76;20190;-70
2021/08/19 10:25:30;;;;;;;;;;;17.40;99.90;;;;;;1870999;77;20180;-70
2021/08/19 10:28:12;;;;;;;;;;;17.40;99.90;;;;;;1870902;77;20865;-70
2021/08/19 10:30:53;;;;;;;;;;;17.40;99.90;;;;;;1870804;77;20562;-71
2021/08/19 10:33:39;;;;;;;;;;;17.40;99.90;;;;;;1870977;75;20233;-71
2021/08/19 10:36:14;;;;;;;;;;;17.40;99.90;;;;;;1871132;77;20194;-71
2021/08/19 10:38:41;;;;;;;;;;;17.50;99.90;;;;;;1871018;75;20245;-71
2021/08/19 10:41:26;;;;;;;;;;;17.50;99.90;;;;;;1870651;76;20176;-71
2021/08/19 10:44:04;;;;;;;;;;;17.50;99.90;;;;;;1870929;77;20503;-71
2021/08/19 10:46:38;;;;;;;;;;;17.50;99.90;;;;;;1870187;75;20144;-71
2021/08/19 10:49:05;;;;;;;;;;;17.60;99.90;;;;;;1870961;75;20223;-71
2021/08/19 10:51:32;;;;;;;;;;;17.60;99.90;;;;;;1870746;77;20203;-71
2021/08/19 10:53:59;;;;;;;;;;;17.60;99.90;;;;;;1871013;76;20147;-71
2021/08/19 10:56:41;;;;;;;;;;;17.60;99.90;;;;;;1870978;77;20191;-71
2021/08/19 10:59:25;;;;;;;;;;;17.70;99.90;;;;;;1870563;75;20187;-71
2021/08/19 11:01:52;;;;;;;;;;;17.70;99.90;;;;;;1870844;76;20187;-71
2021/08/19 11:04:21;;;;;;;;;;;17.70;99.90;;;;;;1870904;76;20128;-71
2021/08/19 11:06:49;;;;;;;;;;;17.70;99.90;;;;;;1863787;77;20139;-71
2021/08/19 11:09:19;;;;;;;;;;;17.70;99.90;;;;;;1870785;75;20140;-71
2021/08/19 11:11:46;;;;;;;;;;;17.70;99.90;;;;;;1870896;77;20155;-71
2021/08/19 11:14:17;;;;;;;;;;;17.60;99.90;;;;;;1871143;77;20232;-71
2021/08/19 11:16:43;;;;;;;;;;;17.60;99.90;;;;;;1870808;75;20216;-71
2021/08/19 11:19:18;;;;;;;;;;;17.60;99.90;;;;;;1870953;75;20152;-71
2021/08/19 11:21:46;;;;;;;;;;;17.60;99.90;;;;;;1870702;77;20507;-71
2021/08/19 11:24:13;;;;;;;;;;;17.60;99.90;;;;;;1870785;76;20232;-71
2021/08/19 11:26:40;;;;;;;;;;;17.60;99.90;;;;;;1870948;77;20425;-71
2021/08/19 11:29:07;;;;;;;;;;;17.50;99.90;;;;;;1871007;75;20229;-71
2021/08/19 11:31:35;;;;;;;;;;;17.60;99.90;;;;;;1870620;76;20448;-71
2021/08/19 11:34:03;;;;;;;;;;;17.60;99.90;;;;;;1870778;75;20120;-71
2021/08/19 11:36:31;;;;;;;;;;;17.50;99.90;;;;;;1870182;76;20437;-71
2021/08/19 11:38:59;;;;;;;;;;;17.50;99.90;;;;;;1870982;75;20475;-71
2021/08/19 11:41:26;;;;;;;;;;;17.50;99.90;;;;;;1870896;77;20152;-71
2021/08/19 11:44:01;;;;;;;;;;;17.50;99.90;;;;;;1870838;76;20190;-71
2021/08/19 11:46:29;;;;;;;;;;;17.60;99.90;;;;;;1869850;75;20199;-71
2021/08/19 11:48:57;;;;;;;;;;;17.60;99.90;;;;;;1871048;75;20175;-71
2021/08/19 11:51:34;;;;;;;;;;;17.60;99.90;;;;;;1870686;77;20203;-71
2021/08/19 11:54:02;;;;;;;;;;;17.60;99.90;;;;;;1870797;77;20193;-71
2021/08/19 11:56:33;;;;;;;;;;;17.60;99.90;;;;;;1870150;76;20155;-71
2021/08/19 11:59:00;;;;;;;;;;;17.70;99.90;;;;;;1870960;75;20199;-71
2021/08/19 12:01:27;;;;;;;;;;;17.70;99.90;;;;;;1870718;77;20152;-71
2021/08/19 12:03:54;;;;;;;;;;;17.80;99.90;;;;;;1871010;77;20202;-72
2021/08/19 12:06:22;;;;;;;;;;;17.80;99.90;;;;;;1871045;77;20148;-71
2021/08/19 12:08:50;;;;;;;;;;;17.80;99.90;;;;;;1870784;75;20147;-71
2021/08/19 12:11:22;;;;;;;;;;;17.90;99.90;;;;;;1870709;76;20136;-71
2021/08/19 12:13:50;;;;;;;;;;;17.90;99.90;;;;;;1870912;76;20183;-71
2021/08/19 12:16:21;;;;;;;;;;;18.00;99.90;;;;;;1871116;77;20473;-71
2021/08/19 12:19:05;;;;;;;;;;;18.10;99.90;;;;;;1871043;75;20147;-71
2021/08/19 12:21:32;;;;;;;;;;;18.10;99.90;;;;;;1870850;77;20318;-71
2021/08/19 12:24:13;;;;;;;;;;;18.10;99.90;;;;;;1870816;77;20283;-71
2021/08/19 12:26:40;;;;;;;;;;;18.10;99.90;;;;;;1870739;77;20203;-71
2021/08/19 12:29:07;;;;;;;;;;;18.00;99.90;;;;;;1870700;75;20194;-71
2021/08/19 12:31:44;;;;;;;;;;;18.10;99.90;;;;;;1870638;77;20178;-71
2021/08/19 12:34:12;;;;;;;;;;;18.10;99.90;;;;;;1869946;76;20199;-71
2021/08/19 12:36:38;;;;;;;;;;;18.00;99.90;;;;;;1870582;77;20151;-71
2021/08/19 12:39:16;;;;;;;;;;;18.10;99.90;;;;;;1870684;75;20303;-71
2021/08/19 12:41:44;;;;;;;;;;;18.10;99.90;;;;;;1870481;77;20142;-71
2021/08/19 12:44:11;;;;;;;;;;;18.10;99.90;;;;;;1870766;76;20166;-71
2021/08/19 12:46:45;;;;;;;;;;;18.10;99.90;;;;;;1870770;77;20147;-71
2021/08/19 12:49:22;;;;;;;;;;;18.10;99.90;;;;;;1870669;75;20186;-70
2021/08/19 12:51:49;;;;;;;;;;;18.00;99.90;;;;;;1870544;77;20405;-71
2021/08/19 12:54:17;;;;;;;;;;;18.00;99.90;;;;;;1870851;76;20187;-71
2021/08/19 12:56:45;;;;;;;;;;;18.10;99.90;;;;;;1870423;75;20194;-70
2021/08/19 12:59:12;;;;;;;;;;;18.00;99.90;;;;;;1868952;75;20283;-71
2021/08/19 13:01:39;;;;;;;;;;;18.10;99.90;;;;;;1870528;77;20151;-71
2021/08/19 13:04:06;;;;;;;;;;;18.10;99.90;;;;;;1870670;77;20202;-71
2021/08/19 13:06:33;;;;;;;;;;;18.10;99.90;;;;;;1870567;76;20186;-71
2021/08/19 13:08:59;;;;;;;;;;;18.10;99.90;;;;;;1870491;75;20428;-71
2021/08/19 13:11:26;;;;;;;;;;;18.10;99.90;;;;;;1870416;76;20194;-71
2021/08/19 13:13:53;;;;;;;;;;;18.10;99.90;;;;;;1870642;76;20421;-71
2021/08/19 13:16:20;;;;;;;;;;;18.00;99.90;;;;;;1870571;77;20217;-71
2021/08/19 13:18:47;;;;;;;;;;;18.00;99.90;;;;;;1870557;75;20203;-71
2021/08/19 13:21:13;;;;;;;;;;;17.90;99.90;;;;;;1870299;77;20147;-71
2021/08/19 13:23:40;;;;;;;;;;;17.80;99.90;;;;;;1870793;76;20238;-71
2021/08/19 13:26:07;;;;;;;;;;;17.80;99.90;;;;;;1870675;77;20202;-71
2021/08/19 13:28:34;;;;;;;;;;;17.80;99.90;;;;;;1870567;75;20139;-71
2021/08/19 13:31:01;;;;;;;;;;;17.80;99.90;;;;;;1870431;77;20207;-71
2021/08/19 13:33:28;;;;;;;;;;;17.80;99.90;;;;;;1870572;77;20136;-71
2021/08/19 13:35:54;;;;;;;;;;;17.70;99.90;;;;;;1870726;75;20179;-71
2021/08/19 13:38:22;;;;;;;;;;;17.70;99.90;;;;;;1870555;75;20468;-71
2021/08/19 13:40:49;;;;;;;;;;;17.80;99.90;;;;;;1870371;77;20151;-71
2021/08/19 13:43:16;;;;;;;;;;;17.80;99.90;;;;;;1870770;77;20136;-71
2021/08/19 13:45:43;;;;;;;;;;;17.80;99.90;;;;;;1870576;77;20183;-71
2021/08/19 13:48:10;;;;;;;;;;;17.80;99.90;;;;;;1870644;75;20179;-71
2021/08/19 13:50:36;;;;;;;;;;;17.80;99.90;;;;;;1870330;77;20195;-71
2021/08/19 13:53:03;;;;;;;;;;;17.80;99.90;;;;;;1870749;77;20203;-71
2021/08/19 13:55:32;;;;;;;;;;;17.80;99.90;;;;;;1870735;77;20207;-71
2021/08/19 13:57:59;;;;;;;;;;;17.90;99.90;;;;;;1870832;77;20143;-71
2021/08/19 14:00:25;;;;;;;;;;;17.80;99.90;;;;;;1870368;75;20211;-71
2021/08/19 14:02:52;;;;;;;;;;;17.90;99.90;;;;;;1870558;76;20187;-71
2021/08/19 14:05:20;;;;;;;;;;;17.80;99.90;;;;;;1870836;76;20395;-71
2021/08/19 14:07:47;;;;;;;;;;;17.90;99.90;;;;;;1870706;77;20214;-71
2021/08/19 14:10:14;;;;;;;;;;;17.80;99.90;;;;;;1870724;75;20202;-71
2021/08/19 14:12:41;;;;;;;;;;;17.80;99.90;;;;;;1870610;77;20136;-71
2021/08/19 14:15:08;;;;;;;;;;;17.80;99.90;;;;;;1870712;76;20179;-71
2021/08/19 14:17:35;;;;;;;;;;;17.80;99.90;;;;;;1870857;77;20203;-71
2021/08/19 14:20:02;;;;;;;;;;;17.80;99.90;;;;;;1870862;75;20322;-71